Time;durP1;ratioP1;P1;durP2;ratioP2;P2;SDS_P1;SDS_P2;PMS_P1;PMS_P2;Temp;Humidity;BMP_temperature;BMP_pressure;BME280_temperature;BME280_humidity;BME280_pressure;Samples;Min_cycle;Max_cycle;Signal;HPM_P1;HPM_P2
2022/08/02 00:00:39;;;;;;;1.08;0.80;;;22.20;63.60;;;;;;6181226;23;43718;-63
2022/08/02 00:03:07;;;;;;;0.80;0.80;;;22.30;63.70;;;;;;6181452;23;43360;-63
2022/08/02 00:05:34;;;;;;;1.00;0.90;;;22.20;63.70;;;;;;6181670;23;43477;-64
2022/08/02 00:08:02;;;;;;;1.00;0.82;;;22.20;63.60;;;;;;6181657;23;43759;-63
2022/08/02 00:10:29;;;;;;;1.08;0.80;;;22.20;63.70;;;;;;6180680;23;43465;-64
2022/08/02 00:12:57;;;;;;;1.20;1.02;;;22.20;63.60;;;;;;6155297;23;43397;-64
2022/08/02 00:15:25;;;;;;;0.98;0.77;;;22.10;63.60;;;;;;6180884;23;43505;-63
2022/08/02 00:17:53;;;;;;;0.65;0.63;;;22.10;63.60;;;;;;6182199;23;44937;-63
2022/08/02 00:20:20;;;;;;;1.20;0.75;;;22.10;63.60;;;;;;6182766;23;43655;-63
2022/08/02 00:22:48;;;;;;;0.82;0.82;;;22.10;63.60;;;;;;6182572;23;43428;-64
2022/08/02 00:25:15;;;;;;;0.60;0.60;;;22.10;63.70;;;;;;6182973;23;43476;-64
2022/08/02 00:27:43;;;;;;;1.17;1.08;;;22.10;63.60;;;;;;6182466;23;45004;-64
2022/08/02 00:30:11;;;;;;;0.95;0.90;;;22.10;63.70;;;;;;6181532;23;43919;-63
2022/08/02 00:32:38;;;;;;;1.77;0.80;;;22.10;63.70;;;;;;6183100;23;43381;-63
2022/08/02 00:35:06;;;;;;;1.83;1.25;;;22.10;63.70;;;;;;6182695;23;43439;-63
2022/08/02 00:37:38;;;;;;;0.70;0.70;;;22.10;63.70;;;;;;6181658;23;44665;-63
2022/08/02 00:40:07;;;;;;;0.70;0.70;;;22.10;63.70;;;;;;6182343;23;43417;-63
2022/08/02 00:42:35;;;;;;;0.80;0.80;;;22.00;63.70;;;;;;6183012;23;43437;-64
2022/08/02 00:45:02;;;;;;;2.30;1.02;;;22.00;64.30;;;;;;6182320;23;43433;-64
2022/08/02 00:47:30;;;;;;;0.68;0.68;;;22.00;63.70;;;;;;6182468;23;44941;-64
2022/08/02 00:49:57;;;;;;;1.20;0.98;;;22.00;63.70;;;;;;6182442;23;43801;-63
2022/08/02 00:52:25;;;;;;;1.02;0.80;;;22.00;63.70;;;;;;6182426;23;43440;-63
2022/08/02 00:54:52;;;;;;;1.83;1.10;;;22.00;63.70;;;;;;6182909;23;43463;-64
2022/08/02 00:57:20;;;;;;;0.85;0.85;;;22.00;63.70;;;;;;6182546;23;44668;-63
2022/08/02 00:59:47;;;;;;;1.20;1.10;;;22.00;63.70;;;;;;6181484;23;43563;-64
2022/08/02 01:02:15;;;;;;;1.58;0.80;;;21.90;63.70;;;;;;6182845;23;43396;-63
2022/08/02 01:04:43;;;;;;;1.10;0.80;;;22.00;63.70;;;;;;6181855;23;43395;-64
2022/08/02 01:07:13;;;;;;;1.05;0.95;;;21.90;63.70;;;;;;6182654;23;44933;-63
2022/08/02 01:09:41;;;;;;;3.15;1.20;;;21.90;63.70;;;;;;6181989;23;43939;-64
2022/08/02 01:12:10;;;;;;;1.58;1.13;;;21.90;63.70;;;;;;6181910;23;43436;-63
2022/08/02 01:14:42;;;;;;;0.90;0.90;;;21.90;63.80;;;;;;6182376;23;43391;-63
2022/08/02 01:17:31;;;;;;;1.20;1.00;;;21.90;64.40;;;;;;6182930;23;44816;-63
2022/08/02 01:20:44;;;;;;;1.20;1.10;;;21.90;63.70;;;;;;6181537;23;43731;-64
2022/08/02 01:23:44;;;;;;;2.88;1.02;;;21.90;63.70;;;;;;6089268;23;43401;-64
2022/08/02 01:26:18;;;;;;;1.70;1.00;;;21.90;63.70;;;;;;6134876;23;43466;-63
2022/08/02 01:29:03;;;;;;;1.08;0.98;;;21.80;63.70;;;;;;6182372;23;43758;-63
2022/08/02 01:32:15;;;;;;;1.00;0.98;;;21.80;63.70;;;;;;6182410;23;43556;-63
2022/08/02 01:34:55;;;;;;;1.10;1.00;;;21.80;63.70;;;;;;6060448;23;43548;-63
2022/08/02 01:37:36;;;;;;;0.95;0.90;;;21.80;63.70;;;;;;6061637;23;43466;-64
2022/08/02 01:40:15;;;;;;;1.33;1.00;;;21.80;63.80;;;;;;6146459;23;44845;-64
2022/08/02 01:42:47;;;;;;;0.95;0.95;;;21.80;63.70;;;;;;6183015;23;43929;-64
2022/08/02 01:45:16;;;;;;;1.45;1.00;;;21.70;63.80;;;;;;6182582;23;43352;-63
2022/08/02 01:47:44;;;;;;;1.65;1.10;;;21.70;63.70;;;;;;6181873;23;43357;-63
2022/08/02 01:50:15;;;;;;;0.98;0.95;;;21.70;63.70;;;;;;6181889;23;43991;-63
2022/08/02 01:52:50;;;;;;;0.85;0.85;;;21.70;63.70;;;;;;6182747;23;43346;-64
2022/08/02 01:55:34;;;;;;;0.93;0.85;;;21.70;63.70;;;;;;6182148;23;43365;-63
2022/08/02 01:58:25;;;;;;;1.67;1.10;;;21.70;63.70;;;;;;6182707;23;43488;-64
2022/08/02 02:00:57;;;;;;;0.98;0.98;;;21.70;63.70;;;;;;6181666;23;44989;-63
2022/08/02 02:03:26;;;;;;;1.10;0.90;;;21.70;64.40;;;;;;6182354;23;43341;-63
2022/08/02 02:05:56;;;;;;;1.00;0.98;;;21.70;63.80;;;;;;6182403;23;44064;-64
2022/08/02 02:08:30;;;;;;;1.60;0.90;;;21.70;63.80;;;;;;6182023;23;43378;-64
2022/08/02 02:10:59;;;;;;;0.90;0.90;;;21.60;63.70;;;;;;6182412;23;44993;-63
2022/08/02 02:13:47;;;;;;;1.15;1.05;;;21.70;63.80;;;;;;6182270;23;43951;-63
2022/08/02 02:16:16;;;;;;;1.17;1.08;;;21.60;63.70;;;;;;6181614;23;43413;-63
2022/08/02 02:18:45;;;;;;;1.38;1.23;;;21.60;63.70;;;;;;6182202;23;43504;-64
2022/08/02 02:21:15;;;;;;;1.13;0.90;;;21.60;63.70;;;;;;6181836;23;43654;-63
2022/08/02 02:23:42;;;;;;;1.10;0.88;;;21.60;63.80;;;;;;6181924;23;43940;-63
2022/08/02 02:26:13;;;;;;;0.90;0.90;;;21.60;63.70;;;;;;6181984;23;43377;-63
2022/08/02 02:28:46;;;;;;;1.27;0.95;;;21.60;63.70;;;;;;6182094;23;43509;-63
2022/08/02 02:31:18;;;;;;;1.60;1.10;;;21.50;63.80;;;;;;6181414;23;44940;-63
2022/08/02 02:33:55;;;;;;;1.88;1.10;;;21.60;63.80;;;;;;6182537;23;44003;-63
2022/08/02 02:36:24;;;;;;;1.70;1.05;;;21.50;63.80;;;;;;6182127;23;43345;-63
2022/08/02 02:38:55;;;;;;;1.00;1.00;;;21.50;63.80;;;;;;6181989;23;43586;-63
2022/08/02 02:41:24;;;;;;;0.98;0.90;;;21.50;63.80;;;;;;6181041;23;45256;-63
2022/08/02 02:43:58;;;;;;;1.10;1.00;;;21.50;63.80;;;;;;6181404;23;43682;-64
2022/08/02 02:46:29;;;;;;;1.35;1.00;;;21.50;63.80;;;;;;6182370;23;43445;-64
2022/08/02 02:48:57;;;;;;;1.10;1.00;;;21.50;63.80;;;;;;6182993;23;43454;-64
2022/08/02 02:51:25;;;;;;;1.25;1.00;;;21.50;63.80;;;;;;6180875;23;44551;-63
2022/08/02 02:53:54;;;;;;;1.90;1.02;;;21.50;63.80;;;;;;6182030;23;43572;-63
2022/08/02 02:56:43;;;;;;;1.35;0.90;;;21.50;63.80;;;;;;6182393;23;43394;-63
2022/08/02 02:59:12;;;;;;;1.10;1.00;;;21.50;63.90;;;;;;6181163;23;43597;-64
2022/08/02 03:01:40;;;;;;;0.80;0.80;;;21.50;63.90;;;;;;6181806;23;44765;-64
2022/08/02 03:04:27;;;;;;;0.90;0.90;;;21.50;63.90;;;;;;6181572;23;43363;-64
2022/08/02 03:07:14;;;;;;;0.80;0.80;;;21.40;63.80;;;;;;6182259;23;43445;-64
2022/08/02 03:09:42;;;;;;;0.90;0.90;;;21.40;63.80;;;;;;6181083;23;43538;-63
2022/08/02 03:12:10;;;;;;;1.10;1.00;;;21.40;63.80;;;;;;6180870;23;44606;-63
2022/08/02 03:14:42;;;;;;;1.20;1.10;;;21.40;63.90;;;;;;6181885;23;43646;-64
2022/08/02 03:17:10;;;;;;;1.17;0.85;;;21.40;63.90;;;;;;6182193;23;43341;-64
2022/08/02 03:19:38;;;;;;;1.25;1.13;;;21.40;63.90;;;;;;6181479;23;43533;-64
2022/08/02 03:22:05;;;;;;;1.35;1.02;;;21.40;63.80;;;;;;6181855;23;44009;-64
2022/08/02 03:24:32;;;;;;;1.13;1.00;;;21.40;63.80;;;;;;6182580;23;43408;-63
2022/08/02 03:27:00;;;;;;;1.13;1.00;;;21.40;63.80;;;;;;6181532;23;43464;-63
2022/08/02 03:29:27;;;;;;;1.30;1.15;;;21.40;63.90;;;;;;6182209;23;43452;-63
2022/08/02 03:32:00;;;;;;;1.38;1.08;;;21.40;63.90;;;;;;6182138;23;44934;-63
2022/08/02 03:34:28;;;;;;;1.17;0.85;;;21.40;63.90;;;;;;6181043;23;43927;-63
2022/08/02 03:36:57;;;;;;;1.02;0.93;;;21.40;63.90;;;;;;6182589;23;43408;-63
2022/08/02 03:39:25;;;;;;;2.75;1.40;;;21.30;63.90;;;;;;6180943;23;43447;-63
2022/08/02 03:41:54;;;;;;;1.00;1.00;;;21.30;63.80;;;;;;6181838;23;44936;-63
2022/08/02 03:44:24;;;;;;;1.30;0.90;;;21.30;63.80;;;;;;6181709;23;43575;-63
2022/08/02 03:46:52;;;;;;;1.20;1.05;;;21.30;63.90;;;;;;6181260;23;43353;-64
2022/08/02 03:49:21;;;;;;;0.98;0.90;;;21.30;63.80;;;;;;6181826;23;43490;-64
2022/08/02 03:51:49;;;;;;;1.38;0.98;;;21.30;63.80;;;;;;6181384;23;44681;-63
2022/08/02 03:54:17;;;;;;;1.38;1.10;;;21.30;63.80;;;;;;6180542;23;43965;-63
2022/08/02 03:56:45;;;;;;;1.00;0.90;;;21.30;63.90;;;;;;6181510;23;43393;-63
2022/08/02 03:59:14;;;;;;;1.00;1.00;;;21.30;64.60;;;;;;6181567;23;43466;-63
2022/08/02 04:01:41;;;;;;;1.38;0.90;;;21.30;63.90;;;;;;6179757;23;43764;-63
2022/08/02 04:04:09;;;;;;;1.13;1.00;;;21.30;63.90;;;;;;6181848;23;43958;-63
2022/08/02 04:06:37;;;;;;;1.30;1.20;;;21.30;63.90;;;;;;6181588;23;43396;-64
2022/08/02 04:09:08;;;;;;;;;;;21.30;63.90;;;;;;6182004;23;43401;-63
2022/08/02 04:11:36;;;;;;;1.45;1.08;;;21.30;63.90;;;;;;6181929;23;44900;-63
2022/08/02 04:14:09;;;;;;;1.67;1.20;;;21.30;63.90;;;;;;6181458;23;43678;-63
2022/08/02 04:16:44;;;;;;;1.70;1.20;;;21.30;64.00;;;;;;6181303;23;43400;-63
2022/08/02 04:19:31;;;;;;;1.58;1.30;;;21.30;64.00;;;;;;6181630;23;43397;-63
2022/08/02 04:22:03;;;;;;;1.30;1.08;;;21.30;63.90;;;;;;6180903;23;44691;-64
2022/08/02 04:24:37;;;;;;;1.77;1.10;;;21.30;64.00;;;;;;6181545;23;43711;-64
2022/08/02 04:27:07;;;;;;;1.42;1.33;;;21.20;63.90;;;;;;6181544;23;43487;-63
2022/08/02 04:29:56;;;;;;;1.10;1.10;;;21.20;63.90;;;;;;6180831;23;43443;-63
2022/08/02 04:32:24;;;;;;;0.95;0.85;;;21.20;63.90;;;;;;6181499;23;44980;-64
2022/08/02 04:34:52;;;;;;;1.50;1.00;;;21.20;63.90;;;;;;6181147;23;43930;-64
2022/08/02 04:37:40;;;;;;;1.35;1.25;;;21.20;63.90;;;;;;6181045;23;43333;-63
2022/08/02 04:40:28;;;;;;;1.33;1.00;;;21.20;64.00;;;;;;6181222;23;43590;-63
2022/08/02 04:42:55;;;;;;;0.82;0.82;;;21.20;64.00;;;;;;6181038;23;43755;-63
2022/08/02 04:45:24;;;;;;;1.63;1.10;;;21.20;63.90;;;;;;6181354;23;43997;-63
2022/08/02 04:47:52;;;;;;;1.38;0.95;;;21.20;63.90;;;;;;6181424;23;43356;-63
2022/08/02 04:50:30;;;;;;;1.23;1.00;;;21.20;63.90;;;;;;6180793;23;43456;-64
2022/08/02 04:52:57;;;;;;;1.60;1.17;;;21.20;64.00;;;;;;6181899;23;44634;-63
2022/08/02 04:55:27;;;;;;;1.20;1.10;;;21.20;64.00;;;;;;6181089;23;43919;-63
2022/08/02 04:57:56;;;;;;;1.75;1.50;;;21.20;63.90;;;;;;6181089;23;43344;-63
2022/08/02 05:00:26;;;;;;;1.08;0.98;;;21.20;63.90;;;;;;6181041;23;43543;-63
2022/08/02 05:02:56;;;;;;;1.27;1.17;;;21.10;63.90;;;;;;6181887;23;44666;-64
2022/08/02 05:05:24;;;;;;;1.55;1.25;;;21.10;63.90;;;;;;6181068;23;44041;-63
2022/08/02 05:07:51;;;;;;;2.28;1.25;;;21.10;63.90;;;;;;6182683;23;43377;-65
2022/08/02 05:10:19;;;;;;;1.35;1.25;;;21.10;63.90;;;;;;6182312;23;43535;-65
2022/08/02 05:12:47;;;;;;;2.28;1.33;;;21.20;63.90;;;;;;6181897;23;44291;-65
2022/08/02 05:15:17;;;;;;;1.20;1.08;;;21.20;63.80;;;;;;6182716;23;43385;-65
2022/08/02 05:17:47;;;;;;;1.07;1.07;;;21.20;63.90;;;;;;6183162;23;43409;-65
2022/08/02 05:20:16;;;;;;;1.27;1.13;;;21.20;63.90;;;;;;6183188;23;43404;-65
2022/08/02 05:22:44;;;;;;;1.13;1.02;;;21.10;63.80;;;;;;6183129;23;44668;-65
2022/08/02 05:25:13;;;;;;;1.70;1.10;;;21.20;63.90;;;;;;6181833;23;43945;-65
2022/08/02 05:27:40;;;;;;;1.77;1.15;;;21.20;63.90;;;;;;6182421;23;43466;-64
2022/08/02 05:30:09;;;;;;;1.30;1.20;;;21.10;63.80;;;;;;6182437;23;43460;-65
2022/08/02 05:32:48;;;;;;;1.20;1.10;;;21.20;63.90;;;;;;6155680;23;44049;-65
2022/08/02 05:35:20;;;;;;;1.17;1.10;;;21.10;63.80;;;;;;6182465;23;43389;-64
2022/08/02 05:37:49;;;;;;;1.08;0.98;;;21.10;63.90;;;;;;6182922;23;43428;-65
2022/08/02 05:40:18;;;;;;;2.00;1.50;;;21.10;63.80;;;;;;6181339;23;43482;-65
2022/08/02 05:42:53;;;;;;;1.30;1.20;;;21.10;63.80;;;;;;6182572;23;44804;-65
2022/08/02 05:45:21;;;;;;;2.90;1.25;;;21.10;63.90;;;;;;6182347;23;43412;-65
2022/08/02 05:47:48;;;;;;;1.10;1.10;;;21.10;64.00;;;;;;6181622;23;44023;-64
2022/08/02 05:50:16;;;;;;;1.27;1.17;;;21.10;64.00;;;;;;6182107;23;44157;-64
2022/08/02 05:52:44;;;;;;;1.13;1.10;;;21.10;64.00;;;;;;6182604;23;43969;-63
2022/08/02 05:55:17;;;;;;;1.45;0.90;;;21.10;64.10;;;;;;6181370;23;44000;-64
2022/08/02 05:58:12;;;;;;;1.75;1.20;;;21.10;64.10;;;;;;6182854;23;43404;-64
2022/08/02 06:00:41;;;;;;;2.00;1.00;;;21.10;64.20;;;;;;6181421;23;43583;-64
2022/08/02 06:03:24;;;;;;;1.60;1.27;;;21.10;64.20;;;;;;6182348;23;43749;-64
2022/08/02 06:06:09;;;;;;;1.77;1.10;;;21.10;64.20;;;;;;6182360;23;43704;-65
2022/08/02 06:08:43;;;;;;;1.40;1.20;;;21.10;64.30;;;;;;6182011;23;43516;-64
2022/08/02 06:11:21;;;;;;;2.22;1.10;;;21.10;64.30;;;;;;6182277;23;43417;-64
2022/08/02 06:13:50;;;;;;;3.00;1.13;;;21.10;64.30;;;;;;6182405;23;44121;-64
2022/08/02 06:16:18;;;;;;;1.60;1.30;;;21.10;64.30;;;;;;6181353;23;43417;-65
2022/08/02 06:19:00;;;;;;;2.83;1.10;;;21.10;64.30;;;;;;6182787;23;43447;-64
2022/08/02 06:21:28;;;;;;;1.42;1.33;;;21.10;64.30;;;;;;6181477;23;43469;-65
2022/08/02 06:24:18;;;;;;;1.40;1.10;;;21.10;64.30;;;;;;6182356;23;43799;-65
2022/08/02 06:26:51;;;;;;;2.25;1.20;;;21.10;64.30;;;;;;6181374;23;43916;-65
2022/08/02 06:29:20;;;;;;;1.33;1.10;;;21.10;64.30;;;;;;6181940;23;43396;-65
2022/08/02 06:31:54;;;;;;;2.20;1.20;;;21.10;64.30;;;;;;6155631;23;43442;-65
2022/08/02 06:34:22;;;;;;;1.63;1.20;;;21.10;64.30;;;;;;6182196;23;44897;-65
2022/08/02 06:37:01;;;;;;;2.22;1.00;;;21.10;64.30;;;;;;6181243;23;43899;-66
2022/08/02 06:39:58;;;;;;;1.30;1.20;;;21.10;64.30;;;;;;6182424;23;43397;-66
2022/08/02 06:42:40;;;;;;;2.25;1.13;;;21.10;64.20;;;;;;6169570;23;43599;-66
2022/08/02 06:45:08;;;;;;;1.10;1.10;;;21.10;64.20;;;;;;6182180;23;43920;-65
2022/08/02 06:47:36;;;;;;;1.17;1.05;;;21.10;64.20;;;;;;6182046;23;44059;-65
2022/08/02 06:50:04;;;;;;;1.25;1.15;;;21.10;64.20;;;;;;6181300;23;43373;-66
2022/08/02 06:52:32;;;;;;;1.20;1.10;;;21.10;64.10;;;;;;6182153;23;43452;-66
2022/08/02 06:55:02;;;;;;;1.45;1.10;;;21.10;64.20;;;;;;6182329;23;44986;-65
2022/08/02 06:57:31;;;;;;;2.58;1.52;;;21.10;64.20;;;;;;6181212;23;43948;-65
2022/08/02 07:00:05;;;;;;;2.15;1.08;;;21.10;64.10;;;;;;6182370;23;43405;-65
2022/08/02 07:02:38;;;;;;;1.30;1.20;;;21.10;64.10;;;;;;6182562;23;43520;-65
2022/08/02 07:05:07;;;;;;;1.20;1.10;;;21.10;64.10;;;;;;6181332;23;44772;-65
2022/08/02 07:07:35;;;;;;;1.30;1.20;;;21.10;64.20;;;;;;6181817;23;43400;-65
2022/08/02 07:10:02;;;;;;;1.27;1.10;;;21.10;64.10;;;;;;6182107;23;43345;-65
2022/08/02 07:12:32;;;;;;;1.40;1.17;;;21.10;64.10;;;;;;6181253;23;44175;-66
2022/08/02 07:15:01;;;;;;;3.13;1.23;;;21.10;64.20;;;;;;6182325;23;44959;-64
2022/08/02 07:17:29;;;;;;;1.85;1.13;;;21.10;64.20;;;;;;6181236;23;43700;-63
2022/08/02 07:19:58;;;;;;;1.40;1.23;;;21.10;64.30;;;;;;6181865;23;43433;-66
2022/08/02 07:22:27;;;;;;;1.60;1.20;;;21.10;64.10;;;;;;6178906;23;43468;-66
2022/08/02 07:24:56;;;;;;;1.80;1.20;;;21.10;64.00;;;;;;6180189;23;44047;-65
2022/08/02 07:27:24;;;;;;;1.73;1.15;;;21.20;64.10;;;;;;6180105;23;43900;-65
2022/08/02 07:29:52;;;;;;;2.38;1.30;;;21.10;64.00;;;;;;6181263;23;43361;-66
2022/08/02 07:32:23;;;;;;;2.22;1.27;;;21.10;64.00;;;;;;6180497;23;43411;-65
2022/08/02 07:34:51;;;;;;;1.75;1.20;;;21.10;64.00;;;;;;6180999;23;44003;-66
2022/08/02 07:37:24;;;;;;;1.33;1.17;;;21.10;64.00;;;;;;6181402;23;43424;-66
2022/08/02 07:40:13;;;;;;;1.40;1.30;;;21.10;64.00;;;;;;6180540;23;43590;-65
2022/08/02 07:42:50;;;;;;;2.60;1.20;;;21.20;64.10;;;;;;6181606;23;43523;-66
2022/08/02 07:45:20;;;;;;;2.28;1.30;;;21.20;64.00;;;;;;6181292;23;43946;-66
2022/08/02 07:47:48;;;;;;;1.20;1.10;;;21.20;64.00;;;;;;6180545;23;43439;-66
2022/08/02 07:50:17;;;;;;;2.45;1.20;;;21.30;64.00;;;;;;6181069;23;43416;-66
2022/08/02 07:52:46;;;;;;;1.35;1.20;;;21.20;63.80;;;;;;6180466;23;43515;-65
2022/08/02 07:55:16;;;;;;;2.20;1.17;;;21.30;63.90;;;;;;6180440;23;44300;-66
2022/08/02 07:57:44;;;;;;;1.27;1.17;;;21.20;63.80;;;;;;6181404;23;43935;-65
2022/08/02 08:00:17;;;;;;;1.63;1.20;;;21.30;63.80;;;;;;6180067;23;43426;-66
2022/08/02 08:02:45;;;;;;;2.83;1.20;;;21.30;63.80;;;;;;6181181;23;43541;-65
2022/08/02 08:05:13;;;;;;;1.15;1.00;;;21.30;63.80;;;;;;6180677;23;44265;-66
2022/08/02 08:07:40;;;;;;;1.73;1.30;;;21.30;63.80;;;;;;6180367;23;43653;-65
2022/08/02 08:10:08;;;;;;;1.60;1.15;;;21.30;63.80;;;;;;6180876;23;43417;-65
2022/08/02 08:12:36;;;;;;;1.50;1.27;;;21.30;63.70;;;;;;6180888;23;43393;-66
2022/08/02 08:15:04;;;;;;;1.80;1.20;;;21.30;63.70;;;;;;6180029;23;43763;-67
2022/08/02 08:17:32;;;;;;;1.08;1.02;;;21.30;63.70;;;;;;6180879;23;43406;-66
2022/08/02 08:20:01;;;;;;;1.30;1.20;;;21.30;63.70;;;;;;6181240;23;43456;-67
2022/08/02 08:22:28;;;;;;;2.35;1.20;;;21.30;63.70;;;;;;6180390;23;43490;-66
2022/08/02 08:24:55;;;;;;;2.15;1.00;;;21.40;63.70;;;;;;6180756;23;44644;-65
2022/08/02 08:27:23;;;;;;;1.27;1.15;;;21.40;63.70;;;;;;6180569;23;43963;-65
2022/08/02 08:29:51;;;;;;;1.27;1.17;;;21.40;63.60;;;;;;6180469;23;43397;-65
2022/08/02 08:32:18;;;;;;;1.48;0.73;;;21.40;63.50;;;;;;6180958;23;43416;-65
2022/08/02 08:34:47;;;;;;;1.55;1.10;;;21.40;63.30;;;;;;6179537;23;44861;-65
2022/08/02 08:37:15;;;;;;;1.20;1.02;;;21.40;63.40;;;;;;6180695;23;43411;-65
2022/08/02 08:39:45;;;;;;;2.25;1.30;;;21.40;63.50;;;;;;6181662;23;43400;-65
2022/08/02 08:42:29;;;;;;;1.95;0.90;;;21.40;63.50;;;;;;6181481;23;43403;-66
2022/08/02 08:44:58;;;;;;;2.17;1.02;;;21.40;63.50;;;;;;6182252;23;44976;-65
2022/08/02 08:47:37;;;;;;;1.05;1.00;;;21.40;63.50;;;;;;6182237;23;43408;-66
2022/08/02 08:50:17;;;;;;;1.55;1.08;;;21.40;63.50;;;;;;6181328;23;43416;-65
2022/08/02 08:53:01;;;;;;;1.30;1.05;;;21.40;63.50;;;;;;6181959;23;43481;-65
2022/08/02 08:55:30;;;;;;;1.33;1.20;;;21.50;63.60;;;;;;6181820;23;43836;-65
2022/08/02 08:57:59;;;;;;;1.27;1.17;;;21.40;63.40;;;;;;6181451;23;43682;-65
2022/08/02 09:00:28;;;;;;;1.52;1.10;;;21.50;63.50;;;;;;6181619;23;43402;-66
2022/08/02 09:02:56;;;;;;;1.80;1.20;;;21.40;63.50;;;;;;6181684;23;43476;-61
2022/08/02 09:05:24;;;;;;;1.15;1.10;;;21.50;63.50;;;;;;6181669;23;44010;-64
2022/08/02 09:07:52;;;;;;;1.77;1.00;;;21.50;63.30;;;;;;6182045;23;43877;-65
2022/08/02 09:10:38;;;;;;;1.00;0.80;;;21.50;63.20;;;;;;6180956;23;43409;-64
2022/08/02 09:13:08;;;;;;;1.00;0.93;;;21.60;63.20;;;;;;6181829;23;43392;-65
2022/08/02 09:15:59;;;;;;;1.80;1.10;;;21.60;63.10;;;;;;6181799;23;44990;-65
2022/08/02 09:18:44;;;;;;;0.93;0.90;;;21.60;62.90;;;;;;6180308;23;43471;-65
2022/08/02 09:21:15;;;;;;;1.15;0.90;;;21.60;63.00;;;;;;6181960;23;43435;-65
2022/08/02 09:23:47;;;;;;;1.47;0.97;;;21.60;63.00;;;;;;6181999;23;43550;-65
2022/08/02 09:26:20;;;;;;;2.78;1.23;;;21.70;62.80;;;;;;6181136;23;44798;-65
2022/08/02 09:28:51;;;;;;;1.10;1.00;;;21.70;62.70;;;;;;6181875;23;43639;-65
2022/08/02 09:31:21;;;;;;;1.60;1.10;;;21.70;62.80;;;;;;6154159;23;43419;-65
2022/08/02 09:33:56;;;;;;;1.25;1.15;;;21.70;62.60;;;;;;6181332;23;43571;-65
2022/08/02 09:36:25;;;;;;;1.35;1.00;;;21.70;62.40;;;;;;6182146;23;45002;-65
2022/08/02 09:38:56;;;;;;;1.08;0.95;;;21.80;62.60;;;;;;6181150;23;43531;-65
2022/08/02 09:41:27;;;;;;;0.93;0.88;;;21.80;62.60;;;;;;6181914;23;43476;-65
2022/08/02 09:43:56;;;;;;;2.40;0.80;;;21.80;62.50;;;;;;6182008;23;43507;-65
2022/08/02 09:46:36;;;;;;;1.17;1.02;;;21.80;62.60;;;;;;6180739;23;44780;-65
2022/08/02 09:49:10;;;;;;;1.40;1.13;;;21.80;62.50;;;;;;6181906;23;43409;-65
2022/08/02 09:51:46;;;;;;;1.65;1.10;;;21.80;62.50;;;;;;6179018;23;43678;-65
2022/08/02 09:54:19;;;;;;;1.02;0.90;;;21.80;62.60;;;;;;6181105;23;43453;-64
2022/08/02 09:56:50;;;;;;;1.20;1.10;;;21.90;62.60;;;;;;6181614;23;45278;-65
2022/08/02 09:59:20;;;;;;;0.98;0.98;;;21.90;62.50;;;;;;6181042;23;43392;-64
2022/08/02 10:01:48;;;;;;;1.20;1.10;;;21.90;62.50;;;;;;6181607;23;43381;-65
2022/08/02 10:04:29;;;;;;;2.10;1.05;;;21.90;62.50;;;;;;6181852;23;43368;-66
2022/08/02 10:07:02;;;;;;;1.10;1.00;;;22.00;62.60;;;;;;6156051;23;43875;-66
2022/08/02 10:09:32;;;;;;;2.53;1.02;;;21.90;62.50;;;;;;6181871;23;43752;-65
2022/08/02 10:12:00;;;;;;;1.27;0.88;;;22.00;62.70;;;;;;6181275;23;43883;-65
2022/08/02 10:14:30;;;;;;;0.80;0.80;;;22.00;62.70;;;;;;6180556;23;43502;-66
2022/08/02 10:16:57;;;;;;;1.20;1.00;;;22.00;62.70;;;;;;6181954;23;43837;-65
2022/08/02 10:19:25;;;;;;;1.65;1.13;;;22.00;62.70;;;;;;6181543;23;43382;-65
2022/08/02 10:22:15;;;;;;;1.10;1.08;;;22.00;62.60;;;;;;6180498;23;43418;-65
2022/08/02 10:24:46;;;;;;;1.25;0.90;;;22.10;62.70;;;;;;6181624;23;43552;-65
2022/08/02 10:27:19;;;;;;;1.20;1.00;;;22.00;62.60;;;;;;6180951;23;44945;-65
2022/08/02 10:29:49;;;;;;;0.98;0.95;;;22.00;62.60;;;;;;6181684;23;43882;-66
2022/08/02 10:32:42;;;;;;;1.05;0.90;;;22.10;62.60;;;;;;6182002;23;43330;-66
2022/08/02 10:35:13;;;;;;;1.88;1.10;;;22.10;62.60;;;;;;6181095;23;43496;-65
2022/08/02 10:38:02;;;;;;;1.33;1.08;;;22.10;62.60;;;;;;6181532;23;44647;-66
2022/08/02 10:40:54;;;;;;;1.23;1.00;;;22.10;62.70;;;;;;6151429;23;43540;-66
2022/08/02 10:43:31;;;;;;;1.27;1.17;;;22.20;62.70;;;;;;6180771;23;43348;-65
2022/08/02 10:46:23;;;;;;;3.58;1.30;;;22.20;62.70;;;;;;6181922;23;43548;-66
2022/08/02 10:49:15;;;;;;;1.23;1.00;;;22.20;62.70;;;;;;6180912;23;44956;-66
2022/08/02 10:52:05;;;;;;;1.13;1.10;;;22.20;62.60;;;;;;6181115;23;43651;-66
2022/08/02 10:54:39;;;;;;;2.65;1.20;;;22.20;62.70;;;;;;6181248;23;43378;-67
2022/08/02 10:57:18;;;;;;;2.28;1.00;;;22.20;62.70;;;;;;6181014;23;43413;-66
2022/08/02 10:59:46;;;;;;;1.75;1.10;;;22.30;62.60;;;;;;6181516;23;43972;-66
2022/08/02 11:02:52;;;;;;;1.52;1.10;;;22.30;62.70;;;;;;6181141;23;45025;-66
2022/08/02 11:05:29;;;;;;;1.13;1.02;;;22.30;62.70;;;;;;6182204;23;43410;-66
2022/08/02 11:08:18;;;;;;;1.38;1.08;;;22.30;62.80;;;;;;6182210;23;43489;-66
2022/08/02 11:10:46;;;;;;;1.17;0.98;;;22.40;62.80;;;;;;6180219;23;44974;-66
2022/08/02 11:13:16;;;;;;;1.48;1.02;;;22.40;62.80;;;;;;6181173;23;43481;-66
2022/08/02 11:15:52;;;;;;;1.07;0.97;;;22.40;62.90;;;;;;6180237;23;43371;-67
2022/08/02 11:18:21;;;;;;;1.23;1.10;;;22.30;62.70;;;;;;6181211;23;43420;-66
2022/08/02 11:21:20;;;;;;;2.08;1.23;;;22.40;62.80;;;;;;6181022;23;44053;-66
2022/08/02 11:23:48;;;;;;;1.77;1.45;;;22.40;62.80;;;;;;6180453;23;43920;-66
2022/08/02 11:26:31;;;;;;;1.00;1.00;;;22.50;62.80;;;;;;6177917;23;43425;-66
2022/08/02 11:29:00;;;;;;;1.58;1.20;;;22.50;62.80;;;;;;6181757;23;43349;-65
2022/08/02 11:31:29;;;;;;;1.33;1.00;;;22.50;62.80;;;;;;6180650;23;44730;-66
2022/08/02 11:33:56;;;;;;;2.03;1.00;;;22.50;62.80;;;;;;6179765;23;43405;-67
2022/08/02 11:36:24;;;;;;;1.60;0.93;;;22.50;62.80;;;;;;6179688;23;43418;-66
2022/08/02 11:39:11;;;;;;;1.77;1.20;;;22.60;62.80;;;;;;6180555;23;43498;-66
2022/08/02 11:41:47;;;;;;;1.25;1.17;;;22.60;62.70;;;;;;6180129;23;43838;-66
2022/08/02 11:44:14;;;;;;;1.75;1.10;;;22.60;62.70;;;;;;6180840;23;43906;-66
2022/08/02 11:46:42;;;;;;;2.08;1.20;;;22.60;62.80;;;;;;6180419;23;43373;-67
2022/08/02 11:49:17;;;;;;;1.50;1.35;;;22.60;62.80;;;;;;6175888;23;43409;-66
2022/08/02 11:52:05;;;;;;;1.30;1.20;;;22.70;62.80;;;;;;6180244;23;44644;-67
2022/08/02 11:54:40;;;;;;;1.15;1.10;;;22.70;62.80;;;;;;6181282;23;43938;-66
2022/08/02 11:57:20;;;;;;;1.17;1.17;;;22.70;62.80;;;;;;6181256;23;43433;-66
2022/08/02 11:59:54;;;;;;;1.40;1.30;;;22.70;62.80;;;;;;6180710;23;43364;-66
2022/08/02 12:02:34;;;;;;;1.30;1.20;;;22.70;62.70;;;;;;6181005;23;44924;-66
2022/08/02 12:05:05;;;;;;;1.63;1.23;;;22.70;62.70;;;;;;6181027;23;43622;-66
2022/08/02 12:07:38;;;;;;;1.27;1.20;;;22.80;62.70;;;;;;6180802;23;43408;-66
2022/08/02 12:10:15;;;;;;;1.85;1.40;;;22.80;62.70;;;;;;6181011;23;43459;-66
2022/08/02 12:12:49;;;;;;;1.92;1.20;;;22.80;62.80;;;;;;6180225;23;43851;-65
2022/08/02 12:15:44;;;;;;;1.50;1.40;;;22.80;62.70;;;;;;6182486;23;43397;-66
2022/08/02 12:21:00;;;;;;;2.55;2.35;;;22.80;63.00;;;;;;6181689;23;43382;-67
2022/08/02 12:23:29;;;;;;;2.22;1.40;;;22.80;63.00;;;;;;6182152;23;43764;-66
2022/08/02 12:26:05;;;;;;;1.70;1.60;;;22.80;63.00;;;;;;6182097;23;43433;-66
2022/08/02 12:28:38;;;;;;;2.28;1.42;;;22.80;62.90;;;;;;6181439;23;43411;-66
2022/08/02 12:31:12;;;;;;;1.38;1.27;;;22.80;63.10;;;;;;6182169;23;43504;-61
2022/08/02 12:33:51;;;;;;;1.38;1.27;;;22.80;63.00;;;;;;6181911;23;44669;-66
2022/08/02 12:36:23;;;;;;;1.20;1.20;;;22.90;62.90;;;;;;6182449;23;43649;-65
2022/08/02 12:38:55;;;;;;;1.45;1.35;;;22.90;62.70;;;;;;6182485;23;43404;-65
2022/08/02 12:41:24;;;;;;;2.05;1.30;;;22.90;62.70;;;;;;6181434;23;43554;-65
2022/08/02 12:43:59;;;;;;;2.22;1.48;;;22.90;62.60;;;;;;6182153;23;44775;-65
2022/08/02 12:46:26;;;;;;;1.75;1.40;;;22.90;62.70;;;;;;6182041;23;43377;-66
2022/08/02 12:48:54;;;;;;;1.50;1.40;;;22.90;62.80;;;;;;6155438;23;43362;-65
2022/08/02 12:51:42;;;;;;;1.10;1.10;;;22.90;62.80;;;;;;6182464;23;43504;-66
2022/08/02 12:54:29;;;;;;;1.45;1.35;;;22.90;62.90;;;;;;6182059;23;44807;-65
2022/08/02 12:57:12;;;;;;;2.10;1.88;;;22.90;62.90;;;;;;6181211;23;43322;-66
2022/08/02 12:59:43;;;;;;;1.90;1.80;;;22.90;62.90;;;;;;6182324;23;43997;-65
2022/08/02 13:02:11;;;;;;;;;;;22.90;62.90;;;;;;6181798;23;43514;-66
2022/08/02 13:04:40;;;;;;;1.90;1.52;;;22.90;62.90;;;;;;6179744;23;43755;-66
2022/08/02 13:07:17;;;;;;;1.48;1.38;;;22.90;62.80;;;;;;6182129;23;44045;-65
2022/08/02 13:09:46;;;;;;;1.70;1.60;;;22.90;62.90;;;;;;6181274;23;43374;-65
2022/08/02 13:12:14;;;;;;;2.03;1.40;;;22.80;63.00;;;;;;6182042;23;43966;-66
2022/08/02 13:14:43;;;;;;;1.77;1.67;;;22.90;63.10;;;;;;6181296;23;43865;-66
2022/08/02 13:17:10;;;;;;;1.65;1.48;;;22.90;63.10;;;;;;6181018;23;43813;-67
2022/08/02 13:19:39;;;;;;;1.85;1.75;;;22.90;63.20;;;;;;6178358;23;43448;-66